Pagina principală
METAR-TAF:

METAR-TAF

Aeroporturi :

Talara, Peru

Latitudine: 04-34S, longitudine: 081-15W, elevație: 85 m

Observații meteo curente

Raportul a fost făcut în urmă cu 56 de minute, la 18:00 UTC
Vânt 10 kt de la Vest/Sud-vest
Temperatură 32°C
Umiditate 52%
Presiune 1010 hPa
Vizibilitate de 10 km sau mai mult
nu există nori sub 1.500 m și nici cumulonimbus

METAR: SPYL 181800Z 24010KT CAVOK 32/21 Q1010 RMK BIRD HAZARD RWY 17/35 PP000

Ora: 13:56 (18:56 UTC)

Prognoză

Raportul a fost făcut în urmă cu 1 oră și 56 de minute, la 17:00 UTC
Prognoză valabilă de la 18 ora 18 UTC la 19 ora 18 UTC
Vânt 12 kt de la Sud
Vizibilitate de 10 km sau mai mult
nu există nori sub 1.500 m și nici cumulonimbus

TAF: SPYL 181700Z 1818/1918 17012KT CAVOK TX32/1819Z TN19/1911Z

Observații și prognoze meteo pentru peste 4.000 de aeroporturi (rapoarte METAR și TAF).

Stațiile disponibile sunt reprezentate pe hartă prin puncte galbene și roșii.

Țineți indicatorul mouse-ului pe punctul dorit pentru a vedea denumirea stației.

Apoi, faceți clic pentru a vedea observațiile și prognozele meteorologice.

Pentru a schimba harta: Pentru mărire, faceți clic pe butoanele verzi cu cruce neagră; pentru micșorare, pe butonul verde cu o liniuță; pentru hărți învecinate, pe săgețile verzi.


METAR-TAF: